createdAt,value
2016-11-09T00:01:01.097Z,2.1
2016-11-09T00:02:02.539Z,2.1
2016-11-09T00:03:03.975Z,2.1
2016-11-09T00:04:05.415Z,2.1
2016-11-09T00:05:07.355Z,2.2
2016-11-09T00:06:08.792Z,2.2
2016-11-09T00:07:10.228Z,2.1
2016-11-09T00:08:11.665Z,2.2
2016-11-09T00:09:13.097Z,2.2
2016-11-09T00:10:14.537Z,2.2
2016-11-09T00:12:17.378Z,2.2
2016-11-09T00:14:20.223Z,2.1
2016-11-09T00:15:21.672Z,2.1
2016-11-09T00:16:23.109Z,2.1
2016-11-09T00:17:24.652Z,2.1
2016-11-09T00:18:26.085Z,2.1
2016-11-09T00:19:27.521Z,2.1
2016-11-09T00:20:28.960Z,2.1
2016-11-09T00:21:30.402Z,2.1
2016-11-09T00:22:31.837Z,2.1
2016-11-09T00:23:33.272Z,2.1
2016-11-09T00:24:34.707Z,2.1
2016-11-09T00:25:36.139Z,2.1
2016-11-09T00:26:37.571Z,2.1
2016-11-09T00:27:39.010Z,2
2016-11-09T00:28:40.489Z,2
2016-11-09T00:29:41.934Z,2
2016-11-09T00:30:43.372Z,2
2016-11-09T00:31:44.815Z,2
2016-11-09T00:32:46.253Z,2
2016-11-09T00:33:47.688Z,2
2016-11-09T00:34:49.126Z,2
2016-11-09T00:35:50.562Z,2
2016-11-09T00:36:52.009Z,2
2016-11-09T00:37:53.457Z,2
2016-11-09T00:38:54.897Z,1.9
2016-11-09T00:39:56.332Z,1.9
2016-11-09T00:40:57.771Z,1.9
2016-11-09T00:41:59.212Z,1.9
2016-11-09T00:43:00.790Z,1.9
2016-11-09T00:44:02.228Z,1.9
2016-11-09T00:45:03.661Z,1.9
2016-11-09T00:46:05.100Z,1.9
2016-11-09T00:47:06.539Z,1.8
2016-11-09T00:48:07.969Z,1.8
2016-11-09T00:49:09.408Z,1.8
2016-11-09T00:50:10.847Z,1.8
2016-11-09T00:51:12.289Z,1.8
2016-11-09T00:52:13.727Z,1.8
2016-11-09T00:53:15.162Z,1.8
2016-11-09T00:54:16.603Z,1.7
2016-11-09T00:55:18.038Z,1.7
2016-11-09T00:56:19.473Z,1.7
2016-11-09T00:57:20.916Z,1.7
2016-11-09T00:58:22.355Z,1.7
2016-11-09T00:59:23.792Z,1.7
2016-11-09T01:00:25.230Z,1.7
2016-11-09T01:01:26.666Z,1.7
2016-11-09T01:02:28.102Z,1.7
2016-11-09T01:03:29.540Z,1.7
2016-11-09T01:04:30.976Z,1.6
2016-11-09T01:05:32.415Z,1.6
2016-11-09T01:06:33.856Z,1.6
2016-11-09T01:07:35.361Z,1.6
2016-11-09T01:08:36.800Z,1.6
2016-11-09T01:09:38.237Z,1.6
2016-11-09T01:11:41.079Z,1.5
2016-11-09T01:12:42.518Z,1.5
2016-11-09T01:13:43.956Z,1.5
2016-11-09T01:14:45.393Z,1.5
2016-11-09T01:15:46.829Z,1.4
2016-11-09T01:16:48.263Z,1.4
2016-11-09T01:17:49.698Z,1.4
2016-11-09T01:18:51.135Z,1.4
2016-11-09T01:20:53.980Z,1.3
2016-11-09T01:21:55.422Z,1.3
2016-11-09T01:22:56.866Z,1.3
2016-11-09T01:23:58.307Z,1.3
2016-11-09T01:24:59.745Z,1.3
2016-11-09T01:26:01.179Z,1.2
2016-11-09T01:27:02.610Z,1.2
2016-11-09T01:28:04.046Z,1.2
2016-11-09T01:29:05.483Z,1.2
2016-11-09T01:31:08.321Z,1.2
2016-11-09T01:32:09.758Z,1.2
2016-11-09T01:33:11.199Z,1.2
2016-11-09T01:34:12.633Z,1.2
2016-11-09T01:35:14.068Z,1.2
2016-11-09T01:36:15.512Z,1.2
2016-11-09T01:37:16.944Z,1.2
2016-11-09T01:38:18.386Z,1.1
2016-11-09T01:39:19.826Z,1.1
2016-11-09T01:40:21.295Z,1.1
2016-11-09T01:41:22.731Z,1.1
2016-11-09T01:42:24.170Z,1.1
2016-11-09T01:43:25.600Z,1.1
2016-11-09T01:44:27.066Z,1.1
2016-11-09T01:45:28.508Z,1.1
2016-11-09T01:46:29.939Z,1.1
2016-11-09T01:47:31.374Z,1.1
2016-11-09T01:48:32.811Z,1.1
2016-11-09T01:49:34.249Z,1.1
2016-11-09T01:50:35.682Z,1
2016-11-09T01:51:37.116Z,1
2016-11-09T01:52:38.561Z,1
2016-11-09T01:53:40.003Z,1
2016-11-09T01:54:41.443Z,1
2016-11-09T01:56:44.283Z,1
2016-11-09T01:57:45.723Z,1
2016-11-09T01:58:47.156Z,1
2016-11-09T01:59:48.600Z,1
2016-11-09T02:01:51.450Z,1
2016-11-09T02:02:52.888Z,0.9
2016-11-09T02:03:54.325Z,0.9
2016-11-09T02:04:55.757Z,0.9
2016-11-09T02:06:58.602Z,0.9
2016-11-09T02:08:00.044Z,0.9
2016-11-09T02:09:01.483Z,0.9
2016-11-09T02:10:02.923Z,0.9
2016-11-09T02:11:04.498Z,0.9
2016-11-09T02:12:05.438Z,0.8
2016-11-09T02:13:06.873Z,0.8
2016-11-09T02:16:11.151Z,0.8
2016-11-09T02:17:12.582Z,0.8
2016-11-09T02:18:14.018Z,0.8
2016-11-09T02:19:15.454Z,0.7
2016-11-09T02:20:16.901Z,0.7
2016-11-09T02:21:18.334Z,0.7
2016-11-09T02:22:19.777Z,0.7
2016-11-09T02:23:21.216Z,0.7
2016-11-09T02:24:22.688Z,0.7
2016-11-09T02:25:24.123Z,0.7
2016-11-09T02:26:25.558Z,0.7
2016-11-09T02:27:26.996Z,0.6
2016-11-09T02:28:28.429Z,0.6
2016-11-09T02:29:29.865Z,0.6
2016-11-09T02:30:31.300Z,0.6
2016-11-09T02:31:32.800Z,0.6
2016-11-09T02:32:34.238Z,0.6
2016-11-09T02:33:35.671Z,0.6
2016-11-09T02:34:37.108Z,0.6
2016-11-09T02:35:38.547Z,0.6
2016-11-09T02:36:39.992Z,0.6
2016-11-09T02:37:41.433Z,0.5
2016-11-09T02:38:42.371Z,0.5
2016-11-09T02:39:43.812Z,0.5
2016-11-09T02:40:45.287Z,0.5
2016-11-09T02:41:46.753Z,0.5
2016-11-09T02:42:48.185Z,0.4
2016-11-09T02:43:49.770Z,0.4
2016-11-09T02:44:51.208Z,0.4
2016-11-09T02:45:52.658Z,0.4
2016-11-09T02:46:53.725Z,0.4
2016-11-09T02:47:55.160Z,0.4
2016-11-09T02:48:56.603Z,0.4
2016-11-09T02:49:58.048Z,0.4
2016-11-09T02:50:59.486Z,0.4
2016-11-09T02:52:00.962Z,0.4
2016-11-09T02:53:02.394Z,0.4
2016-11-09T02:54:03.824Z,0.4
2016-11-09T02:55:05.265Z,0.4
2016-11-09T02:56:06.706Z,0.4
2016-11-09T02:57:08.143Z,0.4
2016-11-09T02:58:09.581Z,0.4
2016-11-09T02:59:11.020Z,0.4
2016-11-09T03:00:12.453Z,0.4
2016-11-09T03:01:13.891Z,0.4
2016-11-09T03:02:15.334Z,0.3
2016-11-09T03:03:16.772Z,0.3
2016-11-09T03:04:18.210Z,0.3
2016-11-09T03:05:19.144Z,0.3
2016-11-09T03:06:20.577Z,0.3
2016-11-09T03:07:22.008Z,0.3
2016-11-09T03:08:23.445Z,0.3
2016-11-09T03:10:26.290Z,0.3
2016-11-09T03:11:27.876Z,0.3
2016-11-09T03:12:29.311Z,0.3
2016-11-09T03:13:30.750Z,0.3
2016-11-09T03:14:32.159Z,0.3
2016-11-09T03:15:33.596Z,0.3
2016-11-09T03:16:35.043Z,0.3
2016-11-09T03:17:36.141Z,0.2
2016-11-09T03:18:37.581Z,0.2
2016-11-09T03:19:39.019Z,0.2
2016-11-09T03:20:40.466Z,0.2
2016-11-09T03:21:41.915Z,0.2
2016-11-09T03:22:43.390Z,0.2
2016-11-09T03:23:44.830Z,0.2
2016-11-09T03:24:46.274Z,0.2
2016-11-09T03:25:47.723Z,0.2
2016-11-09T03:26:49.168Z,0.2
2016-11-09T03:28:52.015Z,0.2
2016-11-09T03:29:53.461Z,0.2
2016-11-09T03:30:54.400Z,0.2
2016-11-09T03:31:55.837Z,0.2
2016-11-09T03:32:57.276Z,0.1
2016-11-09T03:33:58.724Z,0.1
2016-11-09T03:35:00.162Z,0.1
2016-11-09T03:36:01.611Z,0.1
2016-11-09T03:37:03.055Z,0.1
2016-11-09T03:38:04.507Z,0.1
2016-11-09T03:39:05.948Z,0.1
2016-11-09T03:40:07.394Z,0.2
2016-11-09T03:41:08.837Z,0.2
2016-11-09T03:42:10.277Z,0.2
2016-11-09T03:43:11.718Z,0.2
2016-11-09T03:44:12.657Z,0.2
2016-11-09T03:45:14.245Z,0.2
2016-11-09T03:46:15.687Z,0.2
2016-11-09T03:47:17.134Z,0.2
2016-11-09T03:48:18.634Z,0.2
2016-11-09T03:49:20.087Z,0.2
2016-11-09T03:50:21.533Z,0.2
2016-11-09T03:51:22.985Z,0.2
2016-11-09T03:52:23.932Z,0.2
2016-11-09T03:53:25.376Z,0.2
2016-11-09T03:54:26.815Z,0.2
2016-11-09T03:55:28.259Z,0.2
2016-11-09T03:56:29.696Z,0.2
2016-11-09T03:57:31.141Z,0.2
2016-11-09T03:58:32.715Z,0.2
2016-11-09T03:59:34.160Z,0.2
2016-11-09T04:00:35.603Z,0.2
2016-11-09T04:01:37.045Z,0.3
2016-11-09T04:02:38.485Z,0.3
2016-11-09T04:03:39.420Z,0.3
2016-11-09T04:05:42.266Z,0.2
2016-11-09T04:06:43.722Z,0.3
2016-11-09T04:07:45.197Z,0.3
2016-11-09T04:08:46.643Z,0.3
2016-11-09T04:09:48.090Z,0.3
2016-11-09T04:10:49.530Z,0.3
2016-11-09T04:11:50.974Z,0.3
2016-11-09T04:12:52.412Z,0.3
2016-11-09T04:13:53.852Z,0.3
2016-11-09T04:14:55.296Z,0.3
2016-11-09T04:15:56.736Z,0.3
2016-11-09T04:16:58.173Z,0.3
2016-11-09T04:17:59.111Z,0.3
2016-11-09T04:19:00.555Z,0.3
2016-11-09T04:20:02.006Z,0.3
2016-11-09T04:21:03.450Z,0.3
2016-11-09T04:22:04.891Z,0.3
2016-11-09T04:24:07.731Z,0.3
2016-11-09T04:25:09.177Z,0.3
2016-11-09T04:26:10.621Z,0.3
2016-11-09T04:27:12.063Z,0.3
2016-11-09T04:28:13.507Z,0.2
2016-11-09T04:29:14.951Z,0.2
2016-11-09T04:30:16.400Z,0.2
2016-11-09T04:31:17.847Z,0.2
2016-11-09T04:32:19.290Z,0.2
2016-11-09T04:33:20.740Z,0.2
2016-11-09T04:34:21.687Z,0.2
2016-11-09T04:35:23.132Z,0.2
2016-11-09T04:36:24.734Z,0.2
2016-11-09T04:37:26.175Z,0.2
2016-11-09T04:38:27.624Z,0.2
2016-11-09T04:40:30.473Z,0.2
2016-11-09T04:42:33.315Z,0.2
2016-11-09T04:43:34.755Z,0.2
2016-11-09T04:44:36.195Z,0.2
2016-11-09T04:45:37.134Z,0.2
2016-11-09T04:46:38.589Z,0.2
2016-11-09T04:47:40.038Z,0.2
2016-11-09T04:48:41.484Z,0.2
2016-11-09T04:49:42.928Z,0.2
2016-11-09T04:50:44.365Z,0.2
2016-11-09T04:51:45.813Z,0.2
2016-11-09T04:52:47.250Z,0.1
2016-11-09T04:53:48.691Z,0.1
2016-11-09T04:54:50.138Z,0.1
2016-11-09T04:55:51.580Z,0.1
2016-11-09T04:56:53.022Z,0.1
2016-11-09T04:59:57.269Z,0.1
2016-11-09T05:00:58.707Z,0.1
2016-11-09T05:01:59.650Z,0.1
2016-11-09T05:03:01.090Z,0.1
2016-11-09T05:04:02.535Z,0.1
2016-11-09T05:05:03.979Z,0.1
2016-11-09T05:06:05.421Z,0.1
2016-11-09T05:07:06.863Z,0.1
2016-11-09T05:08:08.306Z,0.1
2016-11-09T05:09:09.748Z,0.1
2016-11-09T05:10:11.188Z,0
2016-11-09T05:11:12.631Z,0
2016-11-09T05:12:14.078Z,0
2016-11-09T05:13:15.524Z,0
2016-11-09T05:14:16.965Z,0
2016-11-09T05:15:17.905Z,0
2016-11-09T05:16:19.347Z,0
2016-11-09T05:17:20.786Z,0
2016-11-09T05:18:22.232Z,0
2016-11-09T05:19:23.673Z,0
2016-11-09T05:20:25.119Z,0
2016-11-09T05:21:26.562Z,0
2016-11-09T05:22:28.040Z,0
2016-11-09T05:23:29.489Z,0
2016-11-09T05:24:30.931Z,0
2016-11-09T05:25:32.372Z,0
2016-11-09T05:26:33.809Z,0
2016-11-09T05:27:35.256Z,0
2016-11-09T05:28:36.198Z,0
2016-11-09T05:29:37.648Z,0
2016-11-09T05:30:39.092Z,0
2016-11-09T05:31:40.549Z,0
2016-11-09T05:32:41.994Z,0
2016-11-09T05:33:43.441Z,0
2016-11-09T05:34:44.884Z,0
2016-11-09T05:35:46.397Z,0
2016-11-09T05:36:47.837Z,0
2016-11-09T05:37:49.283Z,0
2016-11-09T05:38:50.225Z,0
2016-11-09T05:39:51.668Z,0
2016-11-09T05:40:53.111Z,0
2016-11-09T05:41:54.562Z,0
2016-11-09T05:42:56.002Z,0
2016-11-09T05:43:57.446Z,0
2016-11-09T05:44:59.026Z,0
2016-11-09T05:46:00.471Z,0
2016-11-09T05:47:01.907Z,0
2016-11-09T05:48:02.846Z,0
2016-11-09T05:49:04.290Z,0
2016-11-09T05:50:05.873Z,0.1
2016-11-09T05:51:07.326Z,0.1
2016-11-09T05:53:10.174Z,0.1
2016-11-09T05:54:11.615Z,0.1
2016-11-09T05:55:13.320Z,0.2
2016-11-09T05:57:15.666Z,0.2
2016-11-09T05:58:17.105Z,0.2
2016-11-09T05:59:18.545Z,0.2
2016-11-09T06:00:19.987Z,0.2
2016-11-09T06:01:21.424Z,0.2
2016-11-09T06:02:22.873Z,0.2
2016-11-09T06:03:24.314Z,0.2
2016-11-09T06:05:27.156Z,0.3
2016-11-09T06:06:28.594Z,0.3
2016-11-09T06:07:29.531Z,0.3
2016-11-09T06:08:30.972Z,0.3
2016-11-09T06:09:32.410Z,0.3
2016-11-09T06:10:33.849Z,0.3
2016-11-09T06:11:35.293Z,0.3
2016-11-09T06:12:36.734Z,0.3
2016-11-09T06:13:38.175Z,0.3
2016-11-09T06:14:39.620Z,0.3
2016-11-09T06:15:41.063Z,0.3
2016-11-09T06:16:42.502Z,0.3
2016-11-09T06:17:43.955Z,0.3
2016-11-09T06:18:45.402Z,0.3
2016-11-09T06:19:46.846Z,0.3
2016-11-09T06:20:48.285Z,0.3
2016-11-09T06:21:49.732Z,0.3
2016-11-09T06:22:50.671Z,0.3
2016-11-09T06:23:52.107Z,0.3
2016-11-09T06:24:53.544Z,0.3
2016-11-09T06:25:54.983Z,0.3
2016-11-09T06:26:56.424Z,0.3
2016-11-09T06:27:57.869Z,0.3
2016-11-09T06:28:59.323Z,0.3
2016-11-09T06:30:00.764Z,0.3
2016-11-09T06:31:02.208Z,0.3
2016-11-09T06:32:03.650Z,0.3
2016-11-09T06:33:05.242Z,0.3
2016-11-09T06:34:06.181Z,0.3
2016-11-09T06:35:07.624Z,0.3
2016-11-09T06:36:09.065Z,0.3
2016-11-09T06:37:10.512Z,0.4
2016-11-09T06:38:11.956Z,0.4
2016-11-09T06:39:13.392Z,0.4
2016-11-09T06:40:14.833Z,0.4
2016-11-09T06:41:16.279Z,0.4
2016-11-09T06:42:17.718Z,0.4
2016-11-09T06:43:19.161Z,0.4
2016-11-09T06:44:20.604Z,0.4
2016-11-09T06:45:22.186Z,0.5
2016-11-09T06:47:24.526Z,0.5
2016-11-09T06:48:25.974Z,0.5
2016-11-09T06:49:27.419Z,0.5
2016-11-09T06:50:28.863Z,0.5
2016-11-09T06:51:30.304Z,0.6
2016-11-09T06:52:31.749Z,0.6
2016-11-09T06:53:33.188Z,0.6
2016-11-09T06:54:34.633Z,0.7
2016-11-09T06:55:36.074Z,0.7
2016-11-09T06:56:37.522Z,0.7
2016-11-09T06:57:38.966Z,0.8
2016-11-09T06:58:40.409Z,0.8
2016-11-09T06:59:41.853Z,0.8
2016-11-09T07:00:43.295Z,0.8
2016-11-09T07:01:44.740Z,0.9
2016-11-09T07:02:46.185Z,0.9
2016-11-09T07:04:49.028Z,0.9
2016-11-09T07:05:50.468Z,0.9
2016-11-09T07:06:51.910Z,0.9
2016-11-09T07:07:52.855Z,0.9
2016-11-09T07:08:54.293Z,1
2016-11-09T07:09:55.736Z,1
2016-11-09T07:10:57.175Z,1
2016-11-09T07:11:58.614Z,1
2016-11-09T07:13:00.055Z,1.1
2016-11-09T07:14:01.501Z,1.1
2016-11-09T07:16:04.482Z,1.3
2016-11-09T07:17:05.926Z,1.3
2016-11-09T07:18:07.379Z,1.4
2016-11-09T07:19:08.826Z,1.4
2016-11-09T07:20:10.268Z,1.5
2016-11-09T07:21:11.716Z,1.5
2016-11-09T07:22:13.158Z,1.6
2016-11-09T07:23:14.607Z,1.6
2016-11-09T07:24:16.051Z,1.6
2016-11-09T07:25:17.495Z,1.6
2016-11-09T07:26:19.009Z,1.6
2016-11-09T07:27:20.455Z,1.5
2016-11-09T07:28:21.897Z,1.6
2016-11-09T07:29:23.345Z,1.6
2016-11-09T07:30:24.789Z,1.7
2016-11-09T07:31:26.235Z,1.7
2016-11-09T07:32:27.715Z,1.7
2016-11-09T07:33:28.659Z,1.8
2016-11-09T07:34:30.110Z,1.9
2016-11-09T07:35:31.546Z,1.9
2016-11-09T07:36:32.992Z,1.9
2016-11-09T07:37:34.437Z,1.9
2016-11-09T07:38:35.884Z,1.9
2016-11-09T07:39:37.324Z,1.9
2016-11-09T07:41:40.165Z,1.9
2016-11-09T07:42:41.622Z,1.9
2016-11-09T07:43:43.065Z,1.9
2016-11-09T07:44:44.645Z,1.9
2016-11-09T07:45:46.088Z,1.9
2016-11-09T07:46:47.533Z,1.9
2016-11-09T07:47:48.983Z,1.9
2016-11-09T07:48:50.434Z,1.9
2016-11-09T07:49:51.887Z,1.9
2016-11-09T07:50:53.332Z,1.9
2016-11-09T07:51:54.774Z,1.9
2016-11-09T07:52:56.279Z,2
2016-11-09T07:53:57.721Z,2
2016-11-09T07:54:59.170Z,2
2016-11-09T07:56:00.681Z,2
2016-11-09T07:57:02.261Z,2.1
2016-11-09T07:58:03.700Z,2.1
2016-11-09T07:59:05.189Z,2.2
2016-11-09T08:01:08.036Z,2.3
2016-11-09T08:02:09.473Z,2.3
2016-11-09T08:03:10.911Z,2.4
2016-11-09T08:04:12.351Z,2.4
2016-11-09T08:05:13.794Z,2.5
2016-11-09T08:06:15.242Z,2.5
2016-11-09T08:07:16.687Z,2.6
2016-11-09T08:08:18.142Z,2.6
2016-11-09T08:09:19.586Z,2.7
2016-11-09T08:10:21.030Z,2.7
2016-11-09T08:11:22.473Z,2.7
2016-11-09T08:12:23.917Z,2.7
2016-11-09T08:13:25.367Z,2.7
2016-11-09T08:14:26.813Z,2.7
2016-11-09T08:15:28.259Z,2.8
2016-11-09T08:16:29.701Z,2.8
2016-11-09T08:17:31.146Z,2.8
2016-11-09T08:18:32.590Z,2.8
2016-11-09T08:19:34.035Z,2.8
2016-11-09T08:20:35.476Z,2.8
2016-11-09T08:21:36.917Z,2.8
2016-11-09T08:22:38.877Z,2.8
2016-11-09T08:23:39.945Z,2.8
2016-11-09T08:24:41.391Z,2.8
2016-11-09T08:25:42.836Z,2.7
2016-11-09T08:26:44.278Z,2.7
2016-11-09T08:27:45.717Z,2.7
2016-11-09T08:28:47.662Z,2.7
2016-11-09T08:29:49.104Z,2.7
2016-11-09T08:30:50.543Z,2.7
2016-11-09T08:31:51.985Z,2.7
2016-11-09T08:32:53.423Z,2.7
2016-11-09T08:33:54.868Z,2.7
2016-11-09T08:34:56.315Z,2.7
2016-11-09T08:35:57.755Z,2.7
2016-11-09T08:36:59.198Z,2.7
2016-11-09T08:38:00.777Z,2.7
2016-11-09T08:39:02.228Z,2.7
2016-11-09T08:40:03.672Z,2.7
2016-11-09T08:41:05.115Z,2.7
2016-11-09T08:42:06.559Z,2.7
2016-11-09T08:44:09.401Z,2.8
2016-11-09T08:46:12.240Z,2.8
2016-11-09T08:47:13.674Z,2.8
2016-11-09T08:48:15.115Z,2.8
2016-11-09T08:49:16.552Z,2.8
2016-11-09T08:50:18.000Z,2.9
2016-11-09T08:51:19.445Z,2.9
2016-11-09T08:52:21.392Z,2.9
2016-11-09T08:53:22.867Z,2.9
2016-11-09T08:55:25.716Z,2.9
2016-11-09T08:56:27.158Z,2.9
2016-11-09T08:57:28.611Z,2.9
2016-11-09T08:58:30.061Z,2.9
2016-11-09T08:59:31.509Z,2.9
2016-11-09T09:00:32.957Z,3
2016-11-09T09:01:34.399Z,3
2016-11-09T09:02:35.845Z,3
2016-11-09T09:03:37.287Z,3
2016-11-09T09:04:38.736Z,3
2016-11-09T09:05:40.247Z,3
2016-11-09T09:06:41.691Z,3
2016-11-09T09:07:43.133Z,3
2016-11-09T09:08:44.579Z,3
2016-11-09T09:09:46.024Z,3
2016-11-09T09:10:47.465Z,3
2016-11-09T09:11:48.907Z,3
2016-11-09T09:13:52.253Z,3
2016-11-09T09:14:53.705Z,3
2016-11-09T09:16:56.554Z,3
2016-11-09T09:17:57.995Z,3
2016-11-09T09:18:59.435Z,3
2016-11-09T09:20:01.036Z,3
2016-11-09T09:21:02.484Z,3
2016-11-09T09:22:03.929Z,3
2016-11-09T09:23:05.374Z,3
2016-11-09T09:24:06.816Z,3
2016-11-09T09:25:08.260Z,3
2016-11-09T09:26:09.706Z,3
2016-11-09T09:27:11.148Z,3
2016-11-09T09:28:12.592Z,3
2016-11-09T09:29:14.170Z,3
2016-11-09T09:30:15.618Z,3
2016-11-09T09:32:18.461Z,3
2016-11-09T09:33:19.906Z,3
2016-11-09T09:34:21.347Z,3
2016-11-09T09:35:22.802Z,3.1
2016-11-09T09:36:24.248Z,3.1
2016-11-09T09:37:26.198Z,3.1
2016-11-09T09:38:27.640Z,3.1
2016-11-09T09:39:29.089Z,3.1
2016-11-09T09:40:30.534Z,3.1
2016-11-09T09:41:31.980Z,3.1
2016-11-09T09:42:33.421Z,3.1
2016-11-09T09:43:34.867Z,3.2
2016-11-09T09:44:36.313Z,3.2
2016-11-09T09:45:37.756Z,3.2
2016-11-09T09:46:39.193Z,3.2
2016-11-09T09:47:40.694Z,3.2
2016-11-09T09:50:44.948Z,3.3
2016-11-09T09:51:46.394Z,3.3
2016-11-09T09:52:48.339Z,3.3
2016-11-09T09:53:49.784Z,3.4
2016-11-09T09:54:51.221Z,3.4
2016-11-09T09:56:54.062Z,3.5
2016-11-09T09:57:55.503Z,3.5
2016-11-09T09:58:56.942Z,3.5
2016-11-09T09:59:58.393Z,3.6
2016-11-09T10:00:59.836Z,3.6
2016-11-09T10:02:01.282Z,3.7
2016-11-09T10:03:02.720Z,3.7
2016-11-09T10:04:04.163Z,3.8
2016-11-09T10:05:06.114Z,3.8
2016-11-09T10:07:08.957Z,3.9
2016-11-09T10:08:10.401Z,4
2016-11-09T10:09:11.844Z,4
2016-11-09T10:10:13.287Z,4.1
2016-11-09T10:11:14.734Z,4.1
2016-11-09T10:12:16.181Z,4.2
2016-11-09T10:13:17.627Z,4.2
2016-11-09T10:14:19.572Z,4.3
2016-11-09T10:15:21.016Z,4.3
2016-11-09T10:16:22.458Z,4.4
2016-11-09T10:17:23.896Z,4.4
2016-11-09T10:18:25.339Z,4.4
2016-11-09T10:19:26.849Z,4.5
2016-11-09T10:20:28.295Z,4.5
2016-11-09T10:21:29.735Z,4.5
2016-11-09T10:22:31.176Z,4.6
2016-11-09T10:23:33.126Z,4.6
2016-11-09T10:24:34.570Z,4.6
2016-11-09T10:25:36.009Z,4.6
2016-11-09T10:26:37.454Z,4.6
2016-11-09T10:27:38.900Z,4.6
2016-11-09T10:28:40.351Z,4.7
2016-11-09T10:29:41.795Z,4.7
2016-11-09T10:30:43.246Z,4.7
2016-11-09T10:31:45.189Z,4.7
2016-11-09T10:32:46.634Z,4.7
2016-11-09T10:33:48.101Z,4.7
2016-11-09T10:34:49.606Z,4.8
2016-11-09T10:35:51.047Z,4.8
2016-11-09T10:36:52.488Z,4.8
2016-11-09T10:37:53.928Z,4.8
2016-11-09T10:38:55.371Z,4.8
2016-11-09T10:39:56.813Z,4.8
2016-11-09T10:40:58.764Z,4.8
2016-11-09T10:42:00.216Z,4.8
2016-11-09T10:43:01.657Z,4.8
2016-11-09T10:44:03.100Z,4.8
2016-11-09T10:45:04.549Z,4.8
2016-11-09T10:46:05.993Z,4.8
2016-11-09T10:47:07.435Z,4.8
2016-11-09T10:48:09.378Z,4.8
2016-11-09T10:49:10.825Z,4.8
2016-11-09T10:50:12.273Z,4.8
2016-11-09T10:51:13.718Z,4.9
2016-11-09T10:52:15.161Z,4.9
2016-11-09T10:53:16.607Z,4.9
2016-11-09T10:54:18.059Z,4.9
2016-11-09T10:55:20.016Z,4.9
2016-11-09T10:56:21.457Z,4.9
2016-11-09T10:57:22.896Z,4.9
2016-11-09T10:58:24.347Z,5
2016-11-09T10:59:25.793Z,5
2016-11-09T11:00:27.242Z,5
2016-11-09T11:01:29.195Z,5
2016-11-09T11:02:30.775Z,5
2016-11-09T11:03:32.215Z,5
2016-11-09T11:04:33.789Z,5.1
2016-11-09T11:05:35.226Z,5.1
2016-11-09T11:06:36.665Z,5.1
2016-11-09T11:07:38.108Z,5.1
2016-11-09T11:08:39.549Z,5.1
2016-11-09T11:09:40.997Z,5.1
2016-11-09T11:10:42.575Z,5.1
2016-11-09T11:11:44.019Z,5.2
2016-11-09T11:12:45.461Z,5.2
2016-11-09T11:13:47.404Z,5.2
2016-11-09T11:14:48.847Z,5.1
2016-11-09T11:15:50.295Z,5.1
2016-11-09T11:16:51.775Z,5.1
2016-11-09T11:17:53.213Z,5.1
2016-11-09T11:18:54.655Z,5.1
2016-11-09T11:19:56.602Z,5.1
2016-11-09T11:20:58.046Z,5.1
2016-11-09T11:21:59.491Z,5
2016-11-09T11:23:00.948Z,5
2016-11-09T11:24:02.387Z,5
2016-11-09T11:25:03.837Z,5
2016-11-09T11:26:05.790Z,5
2016-11-09T11:27:07.236Z,5
2016-11-09T11:28:08.683Z,5
2016-11-09T11:29:10.155Z,4.9
2016-11-09T11:30:11.591Z,4.9
2016-11-09T11:31:13.033Z,4.9
2016-11-09T11:32:14.511Z,4.9
2016-11-09T11:33:16.462Z,4.9
2016-11-09T11:34:18.051Z,4.9
2016-11-09T11:35:19.494Z,4.9
2016-11-09T11:36:20.938Z,4.8
2016-11-09T11:37:22.380Z,4.8
2016-11-09T11:38:23.827Z,4.8
2016-11-09T11:39:25.268Z,4.8
2016-11-09T11:40:26.719Z,4.8
2016-11-09T11:41:28.161Z,4.7
2016-11-09T11:42:30.111Z,4.7
2016-11-09T11:43:31.559Z,4.7
2016-11-09T11:44:33.008Z,4.8
2016-11-09T11:45:34.448Z,4.7
2016-11-09T11:46:35.897Z,4.7
2016-11-09T11:47:37.343Z,4.7
2016-11-09T11:48:38.787Z,4.7
2016-11-09T11:49:40.733Z,4.7
2016-11-09T11:50:42.175Z,4.8
2016-11-09T11:51:43.619Z,4.8
2016-11-09T11:52:45.065Z,4.8
2016-11-09T11:53:46.505Z,4.8
2016-11-09T11:54:47.982Z,4.8
2016-11-09T11:55:49.440Z,4.8
2016-11-09T11:56:51.384Z,4.8
2016-11-09T11:57:52.831Z,4.9
2016-11-09T11:58:54.275Z,4.9
2016-11-09T11:59:55.720Z,4.9
2016-11-09T12:00:57.164Z,4.9
2016-11-09T12:01:58.615Z,4.9
2016-11-09T12:03:00.057Z,5
2016-11-09T12:04:02.004Z,5
2016-11-09T12:05:03.452Z,5
2016-11-09T12:06:04.896Z,5
2016-11-09T12:07:06.376Z,5.1
2016-11-09T12:08:07.821Z,5.1
2016-11-09T12:09:09.279Z,5.1
2016-11-09T12:10:10.729Z,5.1
2016-11-09T12:11:12.814Z,5.1
2016-11-09T12:12:14.260Z,5.2
2016-11-09T12:13:15.730Z,5.2
2016-11-09T12:15:18.578Z,5.2
2016-11-09T12:16:20.027Z,5.2
2016-11-09T12:17:21.474Z,5.3
2016-11-09T12:18:23.421Z,5.3
2016-11-09T12:19:24.867Z,5.3
2016-11-09T12:20:26.307Z,5.3
2016-11-09T12:21:27.755Z,5.3
2016-11-09T12:22:29.196Z,5.2
2016-11-09T12:23:30.772Z,5.2
2016-11-09T12:24:32.216Z,5.2
2016-11-09T12:25:33.660Z,5.2
2016-11-09T12:26:35.609Z,5.2
2016-11-09T12:27:37.054Z,5.2
2016-11-09T12:28:38.497Z,5.2
2016-11-09T12:29:39.942Z,5.2
2016-11-09T12:30:41.384Z,5.2
2016-11-09T12:31:42.829Z,5.2
2016-11-09T12:32:44.775Z,5.2
2016-11-09T12:33:46.214Z,5.1
2016-11-09T12:34:47.655Z,5.1
2016-11-09T12:35:49.098Z,5.1
2016-11-09T12:36:50.540Z,5.1
2016-11-09T12:37:51.982Z,5.1
2016-11-09T12:38:53.931Z,5.1
2016-11-09T12:39:55.371Z,5.1
2016-11-09T12:40:56.876Z,5.1
2016-11-09T12:41:58.314Z,5.1
2016-11-09T12:42:59.767Z,5.1
2016-11-09T12:44:01.278Z,5.1
2016-11-09T12:45:02.720Z,5
2016-11-09T12:46:04.670Z,5
2016-11-09T12:47:06.118Z,5
2016-11-09T12:48:07.562Z,5
2016-11-09T12:49:09.044Z,5
2016-11-09T12:50:10.488Z,4.9
2016-11-09T12:51:11.933Z,4.9
2016-11-09T12:52:13.378Z,4.9
2016-11-09T12:53:14.892Z,4.9
2016-11-09T12:54:16.838Z,4.9
2016-11-09T12:55:18.289Z,4.9
2016-11-09T12:56:19.729Z,4.8
2016-11-09T12:57:21.176Z,4.8
2016-11-09T12:58:22.767Z,4.8
2016-11-09T12:59:24.216Z,4.8
2016-11-09T13:00:25.687Z,4.8
2016-11-09T13:01:27.128Z,4.8
2016-11-09T13:02:28.589Z,4.8
2016-11-09T13:03:30.535Z,4.8
2016-11-09T13:04:31.982Z,4.8
2016-11-09T13:05:33.431Z,4.8
2016-11-09T13:06:34.871Z,4.8
2016-11-09T13:07:36.319Z,4.8
2016-11-09T13:08:37.765Z,4.8
2016-11-09T13:09:39.711Z,4.8
2016-11-09T13:10:41.158Z,4.7
2016-11-09T13:11:42.712Z,4.7
2016-11-09T13:12:44.157Z,4.7
2016-11-09T13:13:45.601Z,4.7
2016-11-09T13:14:47.043Z,4.7
2016-11-09T13:15:48.490Z,4.7
2016-11-09T13:16:49.936Z,4.7
2016-11-09T13:17:51.382Z,4.7
2016-11-09T13:18:53.330Z,4.7
2016-11-09T13:19:54.781Z,4.7
2016-11-09T13:20:56.233Z,4.7
2016-11-09T13:21:57.694Z,4.6
2016-11-09T13:22:59.147Z,4.6
2016-11-09T13:24:00.590Z,4.6
2016-11-09T13:25:02.036Z,4.6
2016-11-09T13:26:03.984Z,4.6
2016-11-09T13:27:05.423Z,4.6
2016-11-09T13:28:06.876Z,4.6
2016-11-09T13:29:08.323Z,4.6
2016-11-09T13:30:09.905Z,4.5
2016-11-09T13:31:11.346Z,4.5
2016-11-09T13:32:12.784Z,4.5
2016-11-09T13:33:14.228Z,4.5
2016-11-09T13:34:15.671Z,4.5
2016-11-09T13:35:17.619Z,4.5
2016-11-09T13:36:19.064Z,4.5
2016-11-09T13:37:20.509Z,4.5
2016-11-09T13:38:21.950Z,4.5
2016-11-09T13:39:23.389Z,4.4
2016-11-09T13:40:24.827Z,4.4
2016-11-09T13:41:26.268Z,4.4
2016-11-09T13:42:28.215Z,4.4
2016-11-09T13:43:29.657Z,4.4
2016-11-09T13:44:31.096Z,4.4
2016-11-09T13:45:32.544Z,4.4
2016-11-09T13:46:33.992Z,4.4
2016-11-09T13:47:35.441Z,4.4
2016-11-09T13:48:36.884Z,4.4
2016-11-09T13:49:38.331Z,4.4
2016-11-09T13:50:40.274Z,4.4
2016-11-09T13:51:41.718Z,4.4
2016-11-09T13:53:44.595Z,4.4
2016-11-09T13:54:46.042Z,4.4
2016-11-09T13:55:47.485Z,4.4
2016-11-09T13:56:48.930Z,4.4
2016-11-09T13:57:50.380Z,4.4
2016-11-09T13:58:52.330Z,4.4
2016-11-09T14:00:55.175Z,4.4
2016-11-09T14:01:56.615Z,4.4
2016-11-09T14:02:58.059Z,4.3
2016-11-09T14:03:59.502Z,4.3
2016-11-09T14:05:00.948Z,4.3
2016-11-09T14:06:02.908Z,4.3
2016-11-09T14:07:03.981Z,4.3
2016-11-09T14:08:05.934Z,4.3
2016-11-09T14:09:07.374Z,4.3
2016-11-09T14:10:08.821Z,4.3
2016-11-09T14:11:10.265Z,4.3
2016-11-09T14:12:11.745Z,4.3
2016-11-09T14:13:13.023Z,4.2
2016-11-09T14:14:14.977Z,4.2
2016-11-09T14:15:16.420Z,4.2
2016-11-09T14:16:17.860Z,4.2
2016-11-09T14:17:19.311Z,4.2
2016-11-09T14:18:20.755Z,4.2
2016-11-09T14:19:22.200Z,4.2
2016-11-09T14:20:23.639Z,4.2
2016-11-09T14:21:25.089Z,4.2
2016-11-09T14:22:26.663Z,4.2
2016-11-09T14:23:28.111Z,4.2
2016-11-09T14:24:30.051Z,4.2
2016-11-09T14:25:31.490Z,4.2
2016-11-09T14:26:32.928Z,4.2
2016-11-09T14:27:34.377Z,4.2
2016-11-09T14:28:35.820Z,4.2
2016-11-09T14:29:37.288Z,4.2
2016-11-09T14:30:38.734Z,4.2
2016-11-09T14:31:40.183Z,4.2
2016-11-09T14:32:41.628Z,4.2
2016-11-09T14:33:43.578Z,4.2
2016-11-09T14:34:45.024Z,4.2
2016-11-09T14:35:46.475Z,4.2
2016-11-09T14:36:47.920Z,4.2
2016-11-09T14:37:49.362Z,4.2
2016-11-09T14:38:50.810Z,4.2
2016-11-09T14:40:54.155Z,4.1
2016-11-09T14:41:55.602Z,4.1
2016-11-09T14:42:57.049Z,4.1
2016-11-09T14:43:58.492Z,4.1
2016-11-09T14:44:59.942Z,4.1
2016-11-09T14:46:01.391Z,4.1
2016-11-09T14:47:02.834Z,4.1
2016-11-09T14:48:04.281Z,4.1
2016-11-09T14:49:05.727Z,4.1
2016-11-09T14:50:07.679Z,4.1
2016-11-09T14:51:09.125Z,4.1
2016-11-09T14:52:10.572Z,4.1
2016-11-09T14:53:12.045Z,4.1
2016-11-09T14:54:13.490Z,4.1
2016-11-09T14:55:15.072Z,4.1
2016-11-09T14:56:16.517Z,4